createdAt,value
2016-09-18T00:00:49.177Z,99.1
2016-09-18T00:01:49.193Z,98.81
2016-09-18T00:02:49.176Z,99.19
2016-09-18T00:03:49.179Z,99.48
2016-09-18T00:04:49.190Z,99.29
2016-09-18T00:05:49.186Z,99.1
2016-09-18T00:06:49.191Z,98.81
2016-09-18T00:07:49.177Z,98.91
2016-09-18T00:08:49.193Z,99.1
2016-09-18T00:09:49.246Z,99.96
2016-09-18T00:10:49.190Z,99.96
2016-09-18T00:11:49.495Z,98.91
2016-09-18T00:12:49.190Z,99.48
2016-09-18T00:13:49.180Z,98.71
2016-09-18T00:14:49.182Z,99.29
2016-09-18T00:15:49.193Z,99.38
2016-09-18T00:16:49.195Z,99.77
2016-09-18T00:17:49.194Z,99.96
2016-09-18T00:18:49.193Z,98.71
2016-09-18T00:19:49.184Z,98.71
2016-09-18T00:20:49.199Z,98.62
2016-09-18T00:21:49.183Z,99.29
2016-09-18T00:22:49.189Z,99.99
2016-09-18T00:23:49.185Z,99.77
2016-09-18T00:24:49.200Z,99.96
2016-09-18T00:25:49.198Z,99.77
2016-09-18T00:26:49.196Z,99.29
2016-09-18T00:27:49.200Z,99.1
2016-09-18T00:28:49.188Z,99
2016-09-18T00:29:49.197Z,99.67
2016-09-18T00:30:49.190Z,99.77
2016-09-18T00:31:49.189Z,99.67
2016-09-18T00:32:49.207Z,99.29
2016-09-18T00:33:49.201Z,99.19
2016-09-18T00:34:49.190Z,99
2016-09-18T00:35:49.192Z,99.1
2016-09-18T00:36:49.193Z,99.19
2016-09-18T00:37:49.207Z,99.77
2016-09-18T00:38:49.204Z,99.67
2016-09-18T00:39:49.193Z,99.19
2016-09-18T00:40:49.210Z,99.19
2016-09-18T00:41:49.204Z,99.48
2016-09-18T00:42:49.193Z,98.91
2016-09-18T00:43:49.198Z,99.29
2016-09-18T00:44:49.201Z,99
2016-09-18T00:45:49.195Z,98.81
2016-09-18T00:46:49.197Z,99.67
2016-09-18T00:47:49.507Z,99.48
2016-09-18T00:48:49.218Z,99.1
2016-09-18T00:49:49.207Z,98.62
2016-09-18T00:50:49.202Z,98.52
2016-09-18T00:51:49.208Z,98.33
2016-09-18T00:52:49.220Z,98.52
2016-09-18T00:53:49.210Z,99.1
2016-09-18T00:54:49.201Z,98.71
2016-09-18T00:55:49.200Z,99
2016-09-18T00:56:49.204Z,99.1
2016-09-18T00:57:49.201Z,98.62
2016-09-18T00:58:49.199Z,98.62
2016-09-18T00:59:49.205Z,98.33
2016-09-18T01:00:49.214Z,98.91
2016-09-18T01:01:49.213Z,99
2016-09-18T01:02:49.210Z,99.19
2016-09-18T01:03:49.460Z,99.58
2016-09-18T01:04:49.206Z,99.96
2016-09-18T01:05:49.213Z,99.67
2016-09-18T01:06:49.208Z,99.58
2016-09-18T01:07:49.209Z,99.58
2016-09-18T01:08:49.217Z,99.38
2016-09-18T01:09:49.360Z,99.1
2016-09-18T01:10:49.209Z,99.1
2016-09-18T01:11:49.213Z,99.96
2016-09-18T01:12:49.216Z,99.87
2016-09-18T01:13:49.219Z,99.48
2016-09-18T01:14:49.219Z,99.99
2016-09-18T01:15:49.223Z,99.1
2016-09-18T01:16:49.221Z,98.91
2016-09-18T01:17:49.221Z,98.43
2016-09-18T01:18:49.224Z,98.81
2016-09-18T01:19:49.217Z,99
2016-09-18T01:20:49.213Z,99
2016-09-18T01:21:49.231Z,99.1
2016-09-18T01:22:49.223Z,99.19
2016-09-18T01:23:49.230Z,99
2016-09-18T01:24:49.230Z,98.52
2016-09-18T01:25:49.226Z,99.1
2016-09-18T01:26:49.226Z,98.91
2016-09-18T01:27:49.219Z,98.91
2016-09-18T01:28:49.225Z,99.1
2016-09-18T01:29:49.224Z,98.62
2016-09-18T01:30:49.237Z,99.1
2016-09-18T01:31:49.230Z,98.91
2016-09-18T01:32:49.229Z,98.91
2016-09-18T01:33:49.227Z,98.81
2016-09-18T01:34:49.228Z,98.91
2016-09-18T01:35:49.229Z,99
2016-09-18T01:36:49.232Z,99.19
2016-09-18T01:37:49.238Z,98.71
2016-09-18T01:38:49.233Z,99.87
2016-09-18T01:39:49.232Z,99.99
2016-09-18T01:40:49.233Z,98.91
2016-09-18T01:41:49.470Z,99
2016-09-18T01:42:49.236Z,98.91
2016-09-18T01:43:49.254Z,99.19
2016-09-18T01:44:49.240Z,99.29
2016-09-18T01:45:49.237Z,98.91
2016-09-18T01:46:49.233Z,98.91
2016-09-18T01:47:49.237Z,99.38
2016-09-18T01:48:49.234Z,99.96
2016-09-18T01:49:49.245Z,99.96
2016-09-18T01:50:49.239Z,99.96
2016-09-18T01:51:49.245Z,99.29
2016-09-18T01:52:49.243Z,98.43
2016-09-18T01:53:49.236Z,99.29
2016-09-18T01:54:49.246Z,99.99
2016-09-18T01:55:49.240Z,99.29
2016-09-18T01:56:49.242Z,98.91
2016-09-18T01:57:49.239Z,99.29
2016-09-18T01:58:49.242Z,98.91
2016-09-18T01:59:49.241Z,99.19
2016-09-18T02:00:49.244Z,98.81
2016-09-18T02:01:49.242Z,99
2016-09-18T02:02:49.243Z,99.48
2016-09-18T02:03:49.245Z,99.1
2016-09-18T02:04:49.249Z,99
2016-09-18T02:05:49.248Z,99.29
2016-09-18T02:06:49.246Z,98.91
2016-09-18T02:07:49.247Z,98.71
2016-09-18T02:08:49.249Z,98.62
2016-09-18T02:09:49.301Z,98.33
2016-09-18T02:10:49.248Z,98.81
2016-09-18T02:11:49.250Z,98.91
2016-09-18T02:12:49.260Z,99.99
2016-09-18T02:13:49.253Z,99.58
2016-09-18T02:14:49.563Z,99.38
2016-09-18T02:15:49.261Z,99
2016-09-18T02:16:49.253Z,98.91
2016-09-18T02:17:49.264Z,98.91
2016-09-18T02:18:49.260Z,98.91
2016-09-18T02:19:49.265Z,99.19
2016-09-18T02:20:49.259Z,98.81
2016-09-18T02:21:49.266Z,99.29
2016-09-18T02:22:49.266Z,99.1
2016-09-18T02:23:49.264Z,98.71
2016-09-18T02:24:49.256Z,99.77
2016-09-18T02:25:49.266Z,99.38
2016-09-18T02:26:49.264Z,99
2016-09-18T02:27:49.268Z,98.71
2016-09-18T02:28:49.264Z,99.29
2016-09-18T02:29:49.264Z,99.29
2016-09-18T02:30:49.267Z,99.29
2016-09-18T02:31:49.264Z,99.1
2016-09-18T02:32:49.275Z,99.48
2016-09-18T02:33:49.268Z,98.43
2016-09-18T02:34:49.270Z,97.66
2016-09-18T02:35:49.273Z,97.66
2016-09-18T02:36:49.271Z,98.14
2016-09-18T02:37:49.268Z,98.33
2016-09-18T02:38:49.271Z,98.33
2016-09-18T02:39:49.269Z,98.05
2016-09-18T02:40:49.279Z,98.62
2016-09-18T02:41:49.284Z,98.14
2016-09-18T02:42:49.272Z,98.24
2016-09-18T02:43:49.272Z,98.14
2016-09-18T02:44:49.275Z,98.81
2016-09-18T02:45:49.346Z,98.52
2016-09-18T02:46:49.282Z,98.91
2016-09-18T02:47:49.284Z,98.71
2016-09-18T02:48:49.285Z,98.14
2016-09-18T02:49:49.280Z,98.33
2016-09-18T02:50:49.527Z,98.81
2016-09-18T02:51:49.286Z,98.43
2016-09-18T02:52:49.523Z,98.71
2016-09-18T02:53:49.286Z,98.62
2016-09-18T02:54:49.282Z,98.14
2016-09-18T02:55:49.283Z,98.43
2016-09-18T02:56:49.283Z,98.43
2016-09-18T02:57:49.286Z,98.14
2016-09-18T02:58:49.286Z,99.1
2016-09-18T02:59:49.286Z,98.91
2016-09-18T03:00:49.289Z,98.91
2016-09-18T03:01:49.302Z,98.71
2016-09-18T03:02:49.300Z,99
2016-09-18T03:03:49.292Z,98.71
2016-09-18T03:04:49.296Z,98.62
2016-09-18T03:05:49.296Z,99.29
2016-09-18T03:06:49.297Z,99.1
2016-09-18T03:07:49.296Z,99.19
2016-09-18T03:08:49.294Z,98.24
2016-09-18T03:09:49.349Z,98.24
2016-09-18T03:10:49.291Z,98.14
2016-09-18T03:11:49.294Z,98.14
2016-09-18T03:12:49.297Z,98.71
2016-09-18T03:13:49.296Z,98.81
2016-09-18T03:14:49.303Z,99
2016-09-18T03:15:49.311Z,99.19
2016-09-18T03:16:49.305Z,99.19
2016-09-18T03:17:49.300Z,99
2016-09-18T03:18:49.306Z,98.33
2016-09-18T03:19:49.319Z,98.62
2016-09-18T03:20:49.302Z,99
2016-09-18T03:21:49.304Z,98.33
2016-09-18T03:22:49.304Z,98.52
2016-09-18T03:23:49.305Z,98.33
2016-09-18T03:24:49.623Z,98.62
2016-09-18T03:25:49.322Z,98.91
2016-09-18T03:26:49.311Z,99.19
2016-09-18T03:27:49.313Z,99
2016-09-18T03:28:49.313Z,99.38
2016-09-18T03:29:49.621Z,99.77
2016-09-18T03:30:49.316Z,99.77
2016-09-18T03:31:49.315Z,99.99
2016-09-18T03:32:49.321Z,99.99
2016-09-18T03:33:49.322Z,99.38
2016-09-18T03:34:49.313Z,99.58
2016-09-18T03:35:49.626Z,99.29
2016-09-18T03:36:49.641Z,99.1
2016-09-18T03:37:49.318Z,99.29
2016-09-18T03:38:49.331Z,99.29
2016-09-18T03:39:49.333Z,99.67
2016-09-18T03:40:49.319Z,99.48
2016-09-18T03:41:49.319Z,98.91
2016-09-18T03:42:49.337Z,99.1
2016-09-18T03:43:49.321Z,99.48
2016-09-18T03:44:49.322Z,99.96
2016-09-18T03:45:49.321Z,99.77
2016-09-18T03:46:49.322Z,99.99
2016-09-18T03:47:49.323Z,99.77
2016-09-18T03:48:49.321Z,99.77
2016-09-18T03:49:49.323Z,99.99
2016-09-18T03:50:49.323Z,99.67
2016-09-18T03:51:49.324Z,99.38
2016-09-18T03:52:49.332Z,99.77
2016-09-18T03:53:49.330Z,99.67
2016-09-18T03:54:49.326Z,99.38
2016-09-18T03:55:49.327Z,99.67
2016-09-18T03:56:49.330Z,99.77
2016-09-18T03:57:49.327Z,99.67
2016-09-18T03:58:49.333Z,99.99
2016-09-18T03:59:49.332Z,99.99
2016-09-18T04:00:49.331Z,99.87
2016-09-18T04:01:49.337Z,99.87
2016-09-18T04:02:49.336Z,99.99
2016-09-18T04:03:49.333Z,99.99
2016-09-18T04:04:49.336Z,99.77
2016-09-18T04:05:49.334Z,99.38
2016-09-18T04:06:49.336Z,99.77
2016-09-18T04:07:49.336Z,99.96
2016-09-18T04:08:49.344Z,99.29
2016-09-18T04:09:49.487Z,99.38
2016-09-18T04:10:49.341Z,99.48
2016-09-18T04:11:49.341Z,99.96
2016-09-18T04:12:49.352Z,99.99
2016-09-18T04:13:49.343Z,99.99
2016-09-18T04:14:49.346Z,99.58
2016-09-18T04:15:49.343Z,99.67
2016-09-18T04:16:49.343Z,99.38
2016-09-18T04:17:49.343Z,99.19
2016-09-18T04:18:49.348Z,99.96
2016-09-18T04:19:49.344Z,99.96
2016-09-18T04:20:49.347Z,99.77
2016-09-18T04:21:49.349Z,99.99
2016-09-18T04:22:49.353Z,99.58
2016-09-18T04:23:49.354Z,98.81
2016-09-18T04:24:49.350Z,98.81
2016-09-18T04:25:49.367Z,99.67
2016-09-18T04:26:49.350Z,99.77
2016-09-18T04:27:49.363Z,99.99
2016-09-18T04:28:49.354Z,99.99
2016-09-18T04:29:49.353Z,99.99
2016-09-18T04:30:49.355Z,99.99
2016-09-18T04:31:49.357Z,99.99
2016-09-18T04:32:49.356Z,99.99
2016-09-18T04:33:49.359Z,99.99
2016-09-18T04:34:49.368Z,99.99
2016-09-18T04:35:49.361Z,99.99
2016-09-18T04:36:49.358Z,99.99
2016-09-18T04:37:49.362Z,99.99
2016-09-18T04:38:49.361Z,99.99
2016-09-18T04:39:49.372Z,99.99
2016-09-18T04:40:49.364Z,99.99
2016-09-18T04:41:49.398Z,99.99
2016-09-18T04:42:49.363Z,99.99
2016-09-18T04:43:49.374Z,99.99
2016-09-18T04:44:49.367Z,99.99
2016-09-18T04:45:49.366Z,99.99
2016-09-18T04:46:49.370Z,99.99
2016-09-18T04:47:49.375Z,99.99
2016-09-18T04:48:49.371Z,99.99
2016-09-18T04:49:49.376Z,99.99
2016-09-18T04:50:49.369Z,99.99
2016-09-18T04:51:49.373Z,99.99
2016-09-18T04:52:49.686Z,99.99
2016-09-18T04:53:49.694Z,99.99
2016-09-18T04:54:49.375Z,99.99
2016-09-18T04:55:49.374Z,99.99
2016-09-18T04:56:49.376Z,99.99
2016-09-18T04:57:49.376Z,99.99
2016-09-18T04:58:49.377Z,99.99
2016-09-18T04:59:49.381Z,99.99
2016-09-18T05:00:49.379Z,99.99
2016-09-18T05:01:49.392Z,99.99
2016-09-18T05:02:49.383Z,99.99
2016-09-18T05:03:49.627Z,99.99
2016-09-18T05:04:49.383Z,99.99
2016-09-18T05:05:49.387Z,99.99
2016-09-18T05:06:49.387Z,99.99
2016-09-18T05:07:49.389Z,99.99
2016-09-18T05:08:49.384Z,99.99
2016-09-18T05:09:49.538Z,99.99
2016-09-18T05:10:49.397Z,99.99
2016-09-18T05:11:49.412Z,99.99
2016-09-18T05:12:49.390Z,99.99
2016-09-18T05:13:49.390Z,99.99
2016-09-18T05:14:49.397Z,99.99
2016-09-18T05:15:49.390Z,99.99
2016-09-18T05:16:49.397Z,99.99
2016-09-18T05:17:49.404Z,99.99
2016-09-18T05:18:49.395Z,99.99
2016-09-18T05:19:49.402Z,99.99
2016-09-18T05:20:49.395Z,99.99
2016-09-18T05:21:49.400Z,99.99
2016-09-18T05:22:49.395Z,99.99
2016-09-18T05:23:49.401Z,99.99
2016-09-18T05:24:49.399Z,99.99
2016-09-18T05:25:49.401Z,99.99
2016-09-18T05:26:49.401Z,99.99
2016-09-18T05:27:49.401Z,99.99
2016-09-18T05:28:49.406Z,99.99
2016-09-18T05:29:49.404Z,99.99
2016-09-18T05:30:49.404Z,99.99
2016-09-18T05:31:49.409Z,99.99
2016-09-18T05:32:49.411Z,99.99
2016-09-18T05:33:49.408Z,99.99
2016-09-18T05:34:49.408Z,99.99
2016-09-18T05:35:49.409Z,99.99
2016-09-18T05:36:49.408Z,99.99
2016-09-18T05:37:49.409Z,99.99
2016-09-18T05:38:49.412Z,99.99
2016-09-18T05:39:49.412Z,99.99
2016-09-18T05:40:49.415Z,99.99
2016-09-18T05:41:49.413Z,99.99
2016-09-18T05:42:49.419Z,99.99
2016-09-18T05:43:49.419Z,99.99
2016-09-18T05:44:49.423Z,99.99
2016-09-18T05:45:49.420Z,99.99
2016-09-18T05:46:49.420Z,99.99
2016-09-18T05:47:49.423Z,99.99
2016-09-18T05:48:49.423Z,99.99
2016-09-18T05:49:49.433Z,99.99
2016-09-18T05:50:49.424Z,99.99
2016-09-18T05:51:49.424Z,99.99
2016-09-18T05:52:49.430Z,99.99
2016-09-18T05:53:49.427Z,99.99
2016-09-18T05:54:49.427Z,99.99
2016-09-18T05:55:49.429Z,99.99
2016-09-18T05:56:49.437Z,99.99
2016-09-18T05:57:49.429Z,99.99
2016-09-18T05:58:49.432Z,99.99
2016-09-18T05:59:49.752Z,99.99
2016-09-18T06:00:49.434Z,99.99
2016-09-18T06:01:49.431Z,99.99
2016-09-18T06:02:49.430Z,99.99
2016-09-18T06:03:49.434Z,99.99
2016-09-18T06:04:49.433Z,99.99
2016-09-18T06:05:49.437Z,99.99
2016-09-18T06:06:49.437Z,99.99
2016-09-18T06:07:49.441Z,99.99
2016-09-18T06:08:49.437Z,99.99
2016-09-18T06:09:49.585Z,99.99
2016-09-18T06:10:49.440Z,99.99
2016-09-18T06:11:49.443Z,99.99
2016-09-18T06:12:49.444Z,99.99
2016-09-18T06:13:49.443Z,99.99
2016-09-18T06:14:49.449Z,99.99
2016-09-18T06:15:49.442Z,99.99
2016-09-18T06:16:49.445Z,99.99
2016-09-18T06:17:49.448Z,99.99
2016-09-18T06:18:49.760Z,99.99
2016-09-18T06:19:49.447Z,99.99
2016-09-18T06:20:49.693Z,99.99
2016-09-18T06:21:49.448Z,99.99
2016-09-18T06:22:49.448Z,99.99
2016-09-18T06:23:49.451Z,99.99
2016-09-18T06:24:49.452Z,99.99
2016-09-18T06:25:49.455Z,99.99
2016-09-18T06:26:49.454Z,99.99
2016-09-18T06:27:49.454Z,99.99
2016-09-18T06:28:49.459Z,99.99
2016-09-18T06:29:49.459Z,99.99
2016-09-18T06:30:49.458Z,99.99
2016-09-18T06:31:49.466Z,99.99
2016-09-18T06:32:49.460Z,99.99
2016-09-18T06:33:49.705Z,99.99
2016-09-18T06:34:49.463Z,99.99
2016-09-18T06:35:49.459Z,99.99
2016-09-18T06:36:49.463Z,99.99
2016-09-18T06:37:49.473Z,99.99
2016-09-18T06:38:49.465Z,99.99
2016-09-18T06:39:49.465Z,99.99
2016-09-18T06:40:49.467Z,99.99
2016-09-18T06:41:49.469Z,99.99
2016-09-18T06:42:49.468Z,99.99
2016-09-18T06:43:49.474Z,99.99
2016-09-18T06:44:49.475Z,99.99
2016-09-18T06:45:49.722Z,99.99
2016-09-18T06:46:49.476Z,99.99
2016-09-18T06:47:49.476Z,99.99
2016-09-18T06:48:49.478Z,99.99
2016-09-18T06:49:49.480Z,99.99
2016-09-18T06:50:49.476Z,99.99
2016-09-18T06:51:49.480Z,99.99
2016-09-18T06:52:49.489Z,99.99
2016-09-18T06:53:49.481Z,99.99
2016-09-18T06:54:49.484Z,99.99
2016-09-18T06:55:49.488Z,99.99
2016-09-18T06:56:49.487Z,99.99
2016-09-18T06:57:49.486Z,99.99
2016-09-18T06:58:49.489Z,99.99
2016-09-18T06:59:49.488Z,99.99
2016-09-18T07:00:49.490Z,99.99
2016-09-18T07:01:49.492Z,99.99
2016-09-18T07:02:49.492Z,99.99
2016-09-18T07:03:49.495Z,99.99
2016-09-18T07:04:49.524Z,99.99
2016-09-18T07:05:49.507Z,99.99
2016-09-18T07:06:49.496Z,99.99
2016-09-18T07:07:49.500Z,99.99
2016-09-18T07:08:49.503Z,99.99
2016-09-18T07:09:49.702Z,99.99
2016-09-18T07:10:49.502Z,99.99
2016-09-18T07:11:49.505Z,99.99
2016-09-18T07:12:49.821Z,99.99
2016-09-18T07:13:49.505Z,99.99
2016-09-18T07:14:49.506Z,99.99
2016-09-18T07:15:49.513Z,99.99
2016-09-18T07:16:49.508Z,99.99
2016-09-18T07:17:49.512Z,99.99
2016-09-18T07:18:49.518Z,99.99
2016-09-18T07:19:49.516Z,99.99
2016-09-18T07:20:49.516Z,99.99
2016-09-18T07:21:49.516Z,99.99
2016-09-18T07:22:49.524Z,99.99
2016-09-18T07:23:49.518Z,99.99
2016-09-18T07:24:49.524Z,99.99
2016-09-18T07:25:49.520Z,99.99
2016-09-18T07:26:49.521Z,99.99
2016-09-18T07:27:49.520Z,99.99
2016-09-18T07:28:49.523Z,99.99
2016-09-18T07:29:49.840Z,99.99
2016-09-18T07:30:49.526Z,99.99
2016-09-18T07:31:49.527Z,99.99
2016-09-18T07:32:49.527Z,99.99
2016-09-18T07:33:49.539Z,99.99
2016-09-18T07:34:49.532Z,99.99
2016-09-18T07:35:49.541Z,99.99
2016-09-18T07:36:49.546Z,99.99
2016-09-18T07:37:49.541Z,99.99
2016-09-18T07:38:49.541Z,99.99
2016-09-18T07:39:49.543Z,99.99
2016-09-18T07:40:49.541Z,99.99
2016-09-18T07:41:49.541Z,99.99
2016-09-18T07:42:49.782Z,99.99
2016-09-18T07:43:49.542Z,99.99
2016-09-18T07:44:49.557Z,99.99
2016-09-18T07:45:49.545Z,99.99
2016-09-18T07:46:49.544Z,99.99
2016-09-18T07:47:49.547Z,99.99
2016-09-18T07:48:49.546Z,99.99
2016-09-18T07:49:49.546Z,99.99
2016-09-18T07:50:49.549Z,99.99
2016-09-18T07:51:49.548Z,99.99
2016-09-18T07:52:49.549Z,99.99
2016-09-18T07:53:49.549Z,99.99
2016-09-18T07:54:49.550Z,99.99
2016-09-18T07:55:49.552Z,99.99
2016-09-18T07:56:49.553Z,99.99
2016-09-18T07:57:49.554Z,99.99
2016-09-18T07:58:49.556Z,99.99
2016-09-18T07:59:49.555Z,99.99
2016-09-18T08:00:49.559Z,99.99
2016-09-18T08:01:49.804Z,99.99
2016-09-18T08:02:49.558Z,99.99
2016-09-18T08:03:49.562Z,99.99
2016-09-18T08:04:49.560Z,99.99
2016-09-18T08:05:49.563Z,99.99
2016-09-18T08:06:49.563Z,99.99
2016-09-18T08:07:49.564Z,99.99
2016-09-18T08:08:49.568Z,99.99
2016-09-18T08:09:49.665Z,99.99
2016-09-18T08:10:49.564Z,99.99
2016-09-18T08:11:49.569Z,99.99
2016-09-18T08:12:49.567Z,99.99
2016-09-18T08:13:49.570Z,99.99
2016-09-18T08:14:49.577Z,99.99
2016-09-18T08:15:49.576Z,99.99
2016-09-18T08:16:49.582Z,99.99
2016-09-18T08:17:49.574Z,99.99
2016-09-18T08:18:49.576Z,99.99
2016-09-18T08:19:49.576Z,99.99
2016-09-18T08:20:49.580Z,99.99
2016-09-18T08:21:49.578Z,99.99
2016-09-18T08:22:49.582Z,99.99
2016-09-18T08:23:49.585Z,99.99
2016-09-18T08:24:49.589Z,99.99
2016-09-18T08:25:49.586Z,99.99
2016-09-18T08:26:49.587Z,99.99
2016-09-18T08:27:49.591Z,99.99
2016-09-18T08:28:49.595Z,99.99
2016-09-18T08:29:49.593Z,99.99
2016-09-18T08:30:49.597Z,99.15
2016-09-18T08:31:49.594Z,98.67
2016-09-18T08:32:49.599Z,99.99
2016-09-18T08:33:49.597Z,99.99
2016-09-18T08:34:49.597Z,99.99
2016-09-18T08:35:49.601Z,99.99
2016-09-18T08:36:49.600Z,99.99
2016-09-18T08:37:49.602Z,99.99
2016-09-18T08:38:49.603Z,99.99
2016-09-18T08:39:49.617Z,99.99
2016-09-18T08:40:49.610Z,99.99
2016-09-18T08:41:49.607Z,99.99
2016-09-18T08:42:49.610Z,99.99
2016-09-18T08:43:49.609Z,99.99
2016-09-18T08:44:49.611Z,99.99
2016-09-18T08:45:49.613Z,99.99
2016-09-18T08:46:49.928Z,99.99
2016-09-18T08:47:49.620Z,99.99
2016-09-18T08:48:49.929Z,99.99
2016-09-18T08:49:49.618Z,99.99
2016-09-18T08:50:49.631Z,99.99
2016-09-18T08:51:49.618Z,99.99
2016-09-18T08:52:49.624Z,99.99
2016-09-18T08:53:49.633Z,99.99
2016-09-18T08:54:49.631Z,99.99
2016-09-18T08:55:49.640Z,99.99
2016-09-18T08:56:49.626Z,99.99
2016-09-18T08:57:49.635Z,99.99
2016-09-18T08:58:49.634Z,99.99
2016-09-18T08:59:49.636Z,99.99
2016-09-18T09:00:49.636Z,99.99
2016-09-18T09:01:49.640Z,99.99
2016-09-18T09:02:49.648Z,99.99
2016-09-18T09:03:49.637Z,99.99
2016-09-18T09:04:49.640Z,99.99
2016-09-18T09:05:49.639Z,99.99
2016-09-18T09:06:49.640Z,99.99
2016-09-18T09:07:49.642Z,99.99
2016-09-18T09:08:49.649Z,99.99
2016-09-18T09:09:49.801Z,99.99
2016-09-18T09:10:49.646Z,99.99
2016-09-18T09:11:49.650Z,99.99
2016-09-18T09:12:49.647Z,99.99
2016-09-18T09:13:49.649Z,99.99
2016-09-18T09:14:49.648Z,99.99
2016-09-18T09:15:49.650Z,99.99
2016-09-18T09:16:49.648Z,99.99
2016-09-18T09:17:49.652Z,99.99
2016-09-18T09:18:49.653Z,99.99
2016-09-18T09:19:49.660Z,99.99
2016-09-18T09:20:49.657Z,99.99
2016-09-18T09:21:49.656Z,99.99
2016-09-18T09:22:49.658Z,99.99
2016-09-18T09:23:49.664Z,99.99
2016-09-18T09:24:49.660Z,99.99
2016-09-18T09:25:49.661Z,99.99
2016-09-18T09:26:49.664Z,99.99
2016-09-18T09:27:49.663Z,99.99
2016-09-18T09:28:49.668Z,99.99
2016-09-18T09:29:49.667Z,99.99
2016-09-18T09:30:49.669Z,99.99
2016-09-18T09:31:49.670Z,99.99
2016-09-18T09:32:49.668Z,99.99
2016-09-18T09:33:49.670Z,99.99
2016-09-18T09:34:49.671Z,99.99
2016-09-18T09:35:49.675Z,99.99
2016-09-18T09:36:49.674Z,99.99
2016-09-18T09:37:49.682Z,99.99
2016-09-18T09:38:49.677Z,99.99
2016-09-18T09:39:49.680Z,99.99
2016-09-18T09:40:49.682Z,99.99
2016-09-18T09:41:49.683Z,99.99
2016-09-18T09:42:49.691Z,99.99
2016-09-18T09:43:49.684Z,99.99
2016-09-18T09:44:49.690Z,99.99
2016-09-18T09:45:49.690Z,99.99
2016-09-18T09:46:49.687Z,99.99
2016-09-18T09:47:49.691Z,99.99
2016-09-18T09:48:49.691Z,99.99
2016-09-18T09:49:49.691Z,99.99
2016-09-18T09:50:49.693Z,99.99
2016-09-18T09:51:49.695Z,99.99
2016-09-18T09:52:49.696Z,99.99
2016-09-18T09:53:49.699Z,99.99
2016-09-18T09:54:49.700Z,99.99
2016-09-18T09:55:49.701Z,99.99
2016-09-18T09:56:49.702Z,98.91
2016-09-18T09:57:49.705Z,99.68
2016-09-18T09:58:49.721Z,98.33
2016-09-18T09:59:49.719Z,98.62
2016-09-18T10:00:49.710Z,99.58
2016-09-18T10:01:49.709Z,99.2
2016-09-18T10:02:49.712Z,99.39
2016-09-18T10:03:49.715Z,99.2
2016-09-18T10:04:49.960Z,99.77
2016-09-18T10:05:49.717Z,99.49
2016-09-18T10:06:49.719Z,98.53
2016-09-18T10:07:49.717Z,97.95
2016-09-18T10:08:49.729Z,98.33
2016-09-18T10:09:49.774Z,98.24
2016-09-18T10:10:49.723Z,98.72
2016-09-18T10:11:49.724Z,97.95
2016-09-18T10:12:49.725Z,98.43
2016-09-18T10:13:49.727Z,98.82
2016-09-18T10:14:49.728Z,99.2
2016-09-18T10:15:49.734Z,98.72
2016-09-18T10:16:49.734Z,98.43
2016-09-18T10:17:49.734Z,98.91
2016-09-18T10:18:49.733Z,99.2
2016-09-18T10:19:49.740Z,99.2
2016-09-18T10:20:49.738Z,99.29
2016-09-18T10:21:49.743Z,98.33
2016-09-18T10:22:50.056Z,98.82
2016-09-18T10:23:49.743Z,98.43
2016-09-18T10:24:49.743Z,98.14
2016-09-18T10:25:49.747Z,98.72
2016-09-18T10:26:49.747Z,99.29
2016-09-18T10:27:49.750Z,99.29
2016-09-18T10:28:49.752Z,98.72
2016-09-18T10:29:49.751Z,99.49
2016-09-18T10:30:49.756Z,98.28
2016-09-18T10:31:49.758Z,97.95
2016-09-18T10:32:49.758Z,99.01
2016-09-18T10:33:49.759Z,99.15
2016-09-18T10:34:49.761Z,99.2
2016-09-18T10:35:49.763Z,99.1
2016-09-18T10:36:49.770Z,98.33
2016-09-18T10:37:49.766Z,98.82
2016-09-18T10:38:49.767Z,97.86
2016-09-18T10:39:49.767Z,97.66
2016-09-18T10:40:49.772Z,97.38
2016-09-18T10:41:49.772Z,97.56
2016-09-18T10:42:49.773Z,98.14
2016-09-18T10:43:49.774Z,97.95
2016-09-18T10:44:49.778Z,98.24
2016-09-18T10:45:49.783Z,97.95
2016-09-18T10:46:49.780Z,98.62
2016-09-18T10:47:49.784Z,97.86
2016-09-18T10:48:49.781Z,98.33
2016-09-18T10:49:49.790Z,98.43
2016-09-18T10:50:49.796Z,98.43
2016-09-18T10:51:49.803Z,99.29
2016-09-18T10:52:49.797Z,99.58
2016-09-18T10:53:50.056Z,99.2
2016-09-18T10:54:49.802Z,99.2
2016-09-18T10:55:49.817Z,99.39
2016-09-18T10:56:49.800Z,97.19
2016-09-18T10:57:49.828Z,98.05
2016-09-18T10:58:49.816Z,99.1
2016-09-18T10:59:49.803Z,98.72
2016-09-18T11:00:49.821Z,98.82
2016-09-18T11:01:49.804Z,99.01
2016-09-18T11:02:49.830Z,98.72
2016-09-18T11:03:49.812Z,98.62
2016-09-18T11:04:49.810Z,98.72
2016-09-18T11:05:49.819Z,98.82
2016-09-18T11:06:50.066Z,98.43
2016-09-18T11:07:49.824Z,98.82
2016-09-18T11:08:49.816Z,98.33
2016-09-18T11:09:49.965Z,98.14
2016-09-18T11:10:49.822Z,97.86
2016-09-18T11:11:49.828Z,98.91
2016-09-18T11:12:49.829Z,99.49
2016-09-18T11:13:49.824Z,99.1
2016-09-18T11:14:49.825Z,97.56
2016-09-18T11:15:49.836Z,98.05
2016-09-18T11:16:49.832Z,97.95
2016-09-18T11:17:49.822Z,98.33
2016-09-18T11:18:49.828Z,98.53
2016-09-18T11:19:49.828Z,99.29
2016-09-18T11:20:49.831Z,98.14
2016-09-18T11:21:49.828Z,97.76
2016-09-18T11:22:49.836Z,99.29
2016-09-18T11:23:49.837Z,96.99
2016-09-18T11:24:49.843Z,97.76
2016-09-18T11:25:49.838Z,96.7
2016-09-18T11:26:49.838Z,97.04
2016-09-18T11:27:49.843Z,96.89
2016-09-18T11:28:49.842Z,96.99
2016-09-18T11:29:49.847Z,97.66
2016-09-18T11:30:49.846Z,97.47
2016-09-18T11:31:49.847Z,96.94
2016-09-18T11:32:49.850Z,96.47
2016-09-18T11:33:49.850Z,96.61
2016-09-18T11:34:49.855Z,96.99
2016-09-18T11:35:49.857Z,97.28
2016-09-18T11:36:49.857Z,96.66
2016-09-18T11:37:49.856Z,96.7
2016-09-18T11:38:49.858Z,97.38
2016-09-18T11:39:50.117Z,98.14
2016-09-18T11:40:49.863Z,97.42
2016-09-18T11:41:49.874Z,96.66
2016-09-18T11:42:49.869Z,97.14
2016-09-18T11:43:49.872Z,97.24
2016-09-18T11:44:49.873Z,97.04
2016-09-18T11:45:49.873Z,96.66
2016-09-18T11:46:50.194Z,95.89
2016-09-18T11:47:49.877Z,97.04
2016-09-18T11:48:49.875Z,95.03
2016-09-18T11:49:49.880Z,94.16
2016-09-18T11:50:49.879Z,95.31
2016-09-18T11:51:49.883Z,94.93
2016-09-18T11:52:49.885Z,95.89
2016-09-18T11:53:49.884Z,95.79
2016-09-18T11:54:49.887Z,95.98
2016-09-18T11:55:49.886Z,95.79
2016-09-18T11:56:49.891Z,95.31
2016-09-18T11:57:49.894Z,95.03
2016-09-18T11:58:49.895Z,95.75
2016-09-18T11:59:49.909Z,96.89
2016-09-18T12:00:49.897Z,96.42
2016-09-18T12:01:49.899Z,97.19
2016-09-18T12:02:49.901Z,97.76
2016-09-18T12:03:49.901Z,96.42
2016-09-18T12:04:49.909Z,96.89
2016-09-18T12:05:49.910Z,97.19
2016-09-18T12:06:49.908Z,97.28
2016-09-18T12:07:49.910Z,97.28
2016-09-18T12:08:49.911Z,98.24
2016-09-18T12:09:49.963Z,97.38
2016-09-18T12:10:49.914Z,97.66
2016-09-18T12:11:49.917Z,98.05
2016-09-18T12:12:49.923Z,97.19
2016-09-18T12:13:49.940Z,97.19
2016-09-18T12:14:49.918Z,97.86
2016-09-18T12:15:49.923Z,97.86
2016-09-18T12:16:49.957Z,98.05
2016-09-18T12:17:49.959Z,97.76
2016-09-18T12:18:49.941Z,98.53
2016-09-18T12:19:49.926Z,98.53
2016-09-18T12:20:49.944Z,98.82
2016-09-18T12:21:49.943Z,97.76
2016-09-18T12:22:49.944Z,96.99
2016-09-18T12:23:49.946Z,97.95
2016-09-18T12:24:49.948Z,96.7
2016-09-18T12:25:49.959Z,98.62
2016-09-18T12:26:49.947Z,98.91
2016-09-18T12:27:49.949Z,99.01
2016-09-18T12:28:49.953Z,99.29
2016-09-18T12:29:49.954Z,99.1
2016-09-18T12:30:49.957Z,99.58
2016-09-18T12:31:49.973Z,98.05
2016-09-18T12:32:49.950Z,98.33
2016-09-18T12:33:49.952Z,97.95
2016-09-18T12:34:49.953Z,97.66
2016-09-18T12:35:49.958Z,98.62
2016-09-18T12:36:49.969Z,98.19
2016-09-18T12:37:49.953Z,97.76
2016-09-18T12:38:49.954Z,97.91
2016-09-18T12:39:49.956Z,97.61
2016-09-18T12:40:49.958Z,97.81
2016-09-18T12:41:49.960Z,97.24
2016-09-18T12:42:49.960Z,96.94
2016-09-18T12:43:49.970Z,97.33
2016-09-18T12:44:49.970Z,98.48
2016-09-18T12:45:49.967Z,97.24
2016-09-18T12:46:49.979Z,96.66
2016-09-18T12:47:49.969Z,96.27
2016-09-18T12:48:49.971Z,95.6
2016-09-18T12:49:49.973Z,95.7
2016-09-18T12:50:49.979Z,95.79
2016-09-18T12:51:50.049Z,96.75
2016-09-18T12:52:50.046Z,96.37
2016-09-18T12:53:49.982Z,96.27
2016-09-18T12:54:49.979Z,96.56
2016-09-18T12:55:49.991Z,97.04